Time;durP1;ratioP1;P1;durP2;ratioP2;P2;SDS_P1;SDS_P2;PMS_P1;PMS_P2;Temp;Humidity;BMP_temperature;BMP_pressure;BME280_temperature;BME280_humidity;BME280_pressure;Samples;Min_cycle;Max_cycle;Signal;HPM_P1;HPM_P2
2021/08/11 00:00:12;;;;;;;5.60;4.03;;;20.00;71.80;;;;;;4986105;28;20034;-64
2021/08/11 00:02:38;;;;;;;4.40;3.58;;;19.90;71.90;;;;;;5004000;28;20069;-64
2021/08/11 00:05:04;;;;;;;4.32;3.92;;;19.90;71.60;;;;;;4989178;28;20106;-64
2021/08/11 00:07:30;;;;;;;4.85;3.67;;;19.80;71.50;;;;;;4988056;28;20506;-63
2021/08/11 00:09:56;;;;;;;4.85;3.55;;;19.80;71.80;;;;;;4989013;28;20057;-64
2021/08/11 00:12:21;;;;;;;4.03;3.42;;;19.80;71.80;;;;;;4980348;28;20034;-63
2021/08/11 00:14:47;;;;;;;4.25;3.50;;;19.80;71.50;;;;;;4985371;28;20490;-63
2021/08/11 00:17:12;;;;;;;4.57;3.42;;;19.70;71.70;;;;;;4986546;28;20363;-64
2021/08/11 00:19:38;;;;;;;4.65;3.97;;;19.70;71.80;;;;;;5002506;28;20066;-63
2021/08/11 00:22:04;;;;;;;4.88;3.75;;;19.60;71.90;;;;;;4987661;28;20057;-64
2021/08/11 00:24:30;;;;;;;5.35;3.78;;;19.50;72.00;;;;;;4986928;28;20042;-64
2021/08/11 00:26:56;;;;;;;3.60;3.30;;;19.50;72.20;;;;;;4985899;28;20089;-64
2021/08/11 00:29:21;;;;;;;5.95;3.85;;;19.40;72.30;;;;;;5001636;28;20502;-64
2021/08/11 00:31:47;;;;;;;3.78;3.35;;;19.40;72.50;;;;;;4978169;28;20559;-64
2021/08/11 00:34:13;;;;;;;4.45;3.80;;;19.40;72.60;;;;;;5000779;28;20112;-63
2021/08/11 00:36:39;;;;;;;6.43;3.90;;;19.30;72.70;;;;;;4983658;28;20454;-64
2021/08/11 00:39:04;;;;;;;5.28;4.05;;;19.20;72.60;;;;;;5001145;28;20065;-63
2021/08/11 00:41:30;;;;;;;6.60;4.65;;;19.20;73.00;;;;;;4986576;28;20042;-63
2021/08/11 00:43:56;;;;;;;6.75;4.32;;;19.10;73.10;;;;;;5002268;28;20151;-63
2021/08/11 00:46:22;;;;;;;4.85;4.40;;;19.10;73.20;;;;;;4987142;28;20709;-63
2021/08/11 00:48:47;;;;;;;6.25;4.60;;;19.00;73.40;;;;;;4987106;28;20035;-64
2021/08/11 00:51:14;;;;;;;4.47;3.95;;;18.90;73.50;;;;;;5000366;28;20117;-64
2021/08/11 00:53:40;;;;;;;5.10;4.60;;;18.90;73.50;;;;;;4985594;28;20027;-63
2021/08/11 00:56:06;;;;;;;7.47;4.25;;;18.90;73.60;;;;;;4985850;28;20042;-64
2021/08/11 00:58:35;;;;;;;5.22;4.72;;;18.90;73.80;;;;;;4986209;28;20534;-63
2021/08/11 01:01:02;;;;;;;5.88;4.25;;;18.90;74.00;;;;;;4977559;28;20015;-63
2021/08/11 01:03:29;;;;;;;4.57;4.18;;;18.90;74.80;;;;;;4985964;28;20034;-63
2021/08/11 01:06:01;;;;;;;5.85;4.38;;;18.80;73.70;;;;;;4986738;28;20482;-64
2021/08/11 01:08:29;;;;;;;4.95;4.40;;;18.80;74.20;;;;;;4986837;28;20042;-64
2021/08/11 01:10:57;;;;;;;4.60;4.20;;;18.80;73.90;;;;;;4995909;28;20409;-64
2021/08/11 01:13:24;;;;;;;5.63;4.30;;;18.80;74.00;;;;;;4983791;28;20521;-64
2021/08/11 01:15:50;;;;;;;5.03;4.38;;;18.70;73.90;;;;;;5001922;28;20161;-64
2021/08/11 01:18:17;;;;;;;4.47;4.03;;;18.70;73.80;;;;;;4986915;28;20105;-65
2021/08/11 01:21:02;;;;;;;4.72;4.10;;;18.70;73.90;;;;;;5001120;28;20525;-63
2021/08/11 01:23:36;;;;;;;6.55;4.00;;;18.70;74.50;;;;;;4982547;28;20616;-63
2021/08/11 01:26:15;;;;;;;6.45;4.45;;;18.60;74.20;;;;;;4985531;28;20034;-63
2021/08/11 01:28:51;;;;;;;5.25;4.00;;;18.60;74.60;;;;;;4985149;28;20397;-63
2021/08/11 01:31:18;;;;;;;5.80;4.90;;;18.50;74.40;;;;;;4995379;28;20429;-64
2021/08/11 01:33:49;;;;;;;6.55;4.45;;;18.50;74.30;;;;;;4980573;28;20367;-63
2021/08/11 01:36:34;;;;;;;4.80;4.18;;;18.50;74.60;;;;;;4977831;28;20042;-64
2021/08/11 01:39:05;;;;;;;4.85;4.30;;;18.40;74.70;;;;;;4975558;28;20905;-63
2021/08/11 01:41:38;;;;;;;4.53;3.92;;;18.40;74.40;;;;;;4975895;28;20035;-63
2021/08/11 01:44:08;;;;;;;5.13;3.80;;;18.40;74.40;;;;;;4975252;28;20045;-63
2021/08/11 01:46:40;;;;;;;4.40;3.50;;;18.40;74.50;;;;;;4974815;28;20034;-63
2021/08/11 01:49:08;;;;;;;5.25;3.70;;;18.40;74.40;;;;;;4975526;28;20038;-63
2021/08/11 01:51:38;;;;;;;4.88;3.63;;;18.40;74.10;;;;;;4969544;28;20042;-63
2021/08/11 01:54:05;;;;;;;5.20;3.35;;;18.40;74.20;;;;;;4977121;28;20033;-63
2021/08/11 01:56:32;;;;;;;3.97;3.15;;;18.30;73.70;;;;;;4980165;28;20042;-63
2021/08/11 01:59:00;;;;;;;4.00;3.67;;;18.30;73.70;;;;;;4981403;28;20034;-63
2021/08/11 02:01:26;;;;;;;5.00;4.18;;;18.30;74.10;;;;;;4976559;28;20035;-63
2021/08/11 02:03:51;;;;;;;4.25;3.40;;;18.30;74.10;;;;;;4971491;28;20050;-63
2021/08/11 02:06:17;;;;;;;4.78;3.95;;;18.30;74.20;;;;;;4971404;28;20053;-63
2021/08/11 02:08:45;;;;;;;5.10;4.53;;;18.30;74.10;;;;;;4975460;28;20030;-63
2021/08/11 02:11:12;;;;;;;5.85;4.40;;;18.20;74.30;;;;;;4986601;28;20053;-63
2021/08/11 02:13:39;;;;;;;6.72;4.20;;;18.20;74.40;;;;;;4978639;28;20066;-63
2021/08/11 02:16:05;;;;;;;4.78;3.85;;;18.10;74.40;;;;;;4973177;28;20038;-63
2021/08/11 02:18:31;;;;;;;4.30;3.90;;;18.00;74.40;;;;;;4984104;28;20433;-64
2021/08/11 02:20:57;;;;;;;4.10;3.60;;;18.00;74.60;;;;;;4968751;28;20046;-63
2021/08/11 02:23:22;;;;;;;4.25;3.85;;;18.00;74.40;;;;;;4988810;28;20122;-63
2021/08/11 02:26:15;;;;;;;5.53;4.07;;;18.00;74.60;;;;;;4996631;28;20055;-63
2021/08/11 02:28:57;;;;;;;7.15;4.28;;;17.90;75.10;;;;;;4981827;28;20469;-63
2021/08/11 02:31:55;;;;;;;4.43;3.65;;;17.90;75.60;;;;;;4976015;28;20038;-63
2021/08/11 02:34:52;;;;;;;4.93;3.53;;;17.90;75.10;;;;;;4973156;28;20482;-63
2021/08/11 02:37:38;;;;;;;4.00;3.60;;;17.90;75.30;;;;;;4979272;28;20062;-63
2021/08/11 02:40:07;;;;;;;5.03;3.72;;;17.80;75.30;;;;;;4984041;28;20066;-63
2021/08/11 02:42:47;;;;;;;3.70;3.30;;;17.80;74.90;;;;;;4983940;28;20057;-63
2021/08/11 02:45:16;;;;;;;3.83;3.53;;;17.70;75.70;;;;;;4975401;28;20086;-63
2021/08/11 02:47:43;;;;;;;5.20;3.30;;;17.70;75.30;;;;;;4987641;28;20046;-63
2021/08/11 02:50:11;;;;;;;4.18;3.30;;;17.70;75.10;;;;;;4976900;28;20073;-63
2021/08/11 02:52:37;;;;;;;3.45;3.15;;;17.60;75.20;;;;;;4969174;28;20043;-63
2021/08/11 02:55:06;;;;;;;4.18;3.78;;;17.60;76.30;;;;;;4975937;28;20026;-63
2021/08/11 02:57:33;;;;;;;5.32;3.25;;;17.60;75.80;;;;;;5003867;28;20043;-63
2021/08/11 03:00:00;;;;;;;4.22;3.63;;;17.60;75.60;;;;;;4978705;28;20130;-63
2021/08/11 03:02:26;;;;;;;4.57;3.47;;;17.60;75.80;;;;;;4980403;28;20761;-63
2021/08/11 03:04:53;;;;;;;5.80;3.30;;;17.60;75.60;;;;;;4972016;28;20038;-63
2021/08/11 03:07:19;;;;;;;6.10;3.33;;;17.70;75.70;;;;;;4975509;28;20038;-64
2021/08/11 03:09:45;;;;;;;5.97;4.13;;;17.70;75.60;;;;;;4988282;28;20030;-63
2021/08/11 03:12:12;;;;;;;14.52;6.75;;;17.70;75.40;;;;;;4969652;28;20042;-63
2021/08/11 03:14:42;;;;;;;15.77;7.28;;;17.70;75.20;;;;;;4982124;28;20038;-64
2021/08/11 03:17:12;;;;;;;16.50;7.93;;;17.70;75.40;;;;;;4994015;28;20034;-63
2021/08/11 03:19:39;;;;;;;16.63;7.38;;;17.70;75.30;;;;;;4982559;28;20030;-63
2021/08/11 03:22:07;;;;;;;12.65;6.53;;;17.60;75.20;;;;;;4980702;28;20054;-63
2021/08/11 03:24:33;;;;;;;10.38;5.60;;;17.60;75.40;;;;;;4971796;28;20410;-63
2021/08/11 03:26:59;;;;;;;6.60;4.30;;;17.60;75.40;;;;;;4983922;28;20037;-63
2021/08/11 03:29:24;;;;;;;5.13;4.03;;;17.50;75.30;;;;;;4997140;28;20482;-63
2021/08/11 03:31:50;;;;;;;6.85;4.03;;;17.50;75.30;;;;;;4996098;28;21838;-63
2021/08/11 03:34:16;;;;;;;6.28;3.67;;;17.50;75.30;;;;;;4994474;28;20053;-63
2021/08/11 03:36:41;;;;;;;3.58;3.28;;;17.50;75.30;;;;;;4974280;28;20062;-63
2021/08/11 03:39:08;;;;;;;4.05;3.50;;;17.50;75.40;;;;;;4975474;28;21006;-64
2021/08/11 03:41:33;;;;;;;3.92;3.13;;;17.40;75.40;;;;;;4977191;28;20037;-63
2021/08/11 03:43:59;;;;;;;3.75;3.40;;;17.40;75.60;;;;;;4983263;28;20397;-63
2021/08/11 03:46:25;;;;;;;5.38;3.55;;;17.30;75.80;;;;;;4984862;28;20041;-63
2021/08/11 03:48:51;;;;;;;3.92;3.25;;;17.30;76.00;;;;;;4975439;28;20599;-63
2021/08/11 03:51:16;;;;;;;3.67;3.33;;;17.20;76.30;;;;;;4978806;28;20391;-63
2021/08/11 03:53:42;;;;;;;3.70;3.35;;;17.10;76.40;;;;;;4987360;28;20050;-65
2021/08/11 03:56:07;;;;;;;4.78;3.30;;;17.10;76.50;;;;;;4976123;28;20014;-65
2021/08/11 03:58:34;;;;;;;4.53;3.15;;;17.10;76.50;;;;;;4978418;28;20042;-63
2021/08/11 04:01:00;;;;;;;5.40;3.33;;;17.10;76.50;;;;;;4985745;28;20073;-63
2021/08/11 04:03:26;;;;;;;7.03;4.00;;;17.00;76.60;;;;;;4966073;28;20045;-63
2021/08/11 04:05:51;;;;;;;4.07;3.63;;;17.00;76.80;;;;;;4971533;28;20214;-63
2021/08/11 04:08:17;;;;;;;5.30;4.47;;;17.00;76.80;;;;;;4970268;28;20055;-63
2021/08/11 04:10:45;;;;;;;5.22;3.63;;;17.00;77.00;;;;;;4975300;28;20069;-63
2021/08/11 04:13:14;;;;;;;7.72;4.75;;;17.00;77.20;;;;;;4977228;28;20081;-63
2021/08/11 04:15:41;;;;;;;4.93;3.92;;;17.00;77.50;;;;;;4986138;28;20561;-63
2021/08/11 04:18:07;;;;;;;4.65;4.15;;;17.00;77.50;;;;;;4985554;28;20513;-63
2021/08/11 04:20:33;;;;;;;5.57;4.15;;;17.10;77.50;;;;;;4973890;28;20473;-63
2021/08/11 04:22:59;;;;;;;5.07;3.88;;;17.10;77.50;;;;;;4982546;28;20071;-63
2021/08/11 04:25:24;;;;;;;5.20;3.92;;;17.10;77.30;;;;;;4982170;28;20069;-63
2021/08/11 04:27:50;;;;;;;4.82;4.15;;;17.10;77.30;;;;;;4975805;28;20149;-63
2021/08/11 04:30:15;;;;;;;7.15;4.18;;;17.10;77.20;;;;;;4980132;28;20104;-63
2021/08/11 04:32:41;;;;;;;7.53;4.15;;;17.20;76.90;;;;;;4979311;28;20520;-63
2021/08/11 04:35:08;;;;;;;4.07;3.67;;;17.20;76.80;;;;;;4985712;28;20133;-63
2021/08/11 04:37:38;;;;;;;5.28;3.90;;;17.20;76.60;;;;;;4974044;28;20442;-63
2021/08/11 04:40:06;;;;;;;5.75;3.72;;;17.20;76.70;;;;;;4979414;28;20050;-63
2021/08/11 04:42:32;;;;;;;6.28;3.90;;;17.20;76.60;;;;;;4981260;28;20042;-63
2021/08/11 04:44:59;;;;;;;3.63;3.33;;;17.30;76.40;;;;;;4969784;28;20039;-63
2021/08/11 04:47:24;;;;;;;5.53;3.65;;;17.30;76.30;;;;;;4980679;28;20544;-63
2021/08/11 04:49:50;;;;;;;4.72;3.40;;;17.30;76.30;;;;;;4998064;28;20030;-63
2021/08/11 04:52:16;;;;;;;4.28;3.83;;;17.30;76.20;;;;;;4980854;28;20544;-63
2021/08/11 04:54:42;;;;;;;4.82;3.83;;;17.30;76.20;;;;;;4994931;28;20135;-63
2021/08/11 04:57:07;;;;;;;5.47;3.95;;;17.30;76.30;;;;;;4985903;28;20039;-63
2021/08/11 04:59:33;;;;;;;4.68;4.00;;;17.30;76.20;;;;;;5000397;28;20026;-63
2021/08/11 05:01:59;;;;;;;5.38;4.38;;;17.20;76.30;;;;;;4974676;28;20026;-63
2021/08/11 05:04:25;;;;;;;5.30;4.00;;;17.20;76.50;;;;;;4981319;28;20026;-63
2021/08/11 05:06:51;;;;;;;4.85;3.85;;;17.20;76.80;;;;;;4980887;28;20041;-63
2021/08/11 05:09:16;;;;;;;7.35;4.05;;;17.10;76.90;;;;;;4977915;28;20053;-63
2021/08/11 05:11:42;;;;;;;5.43;4.05;;;17.10;77.20;;;;;;4979611;28;20770;-63
2021/08/11 05:14:08;;;;;;;5.60;3.72;;;17.10;77.50;;;;;;4976893;28;20413;-63
2021/08/11 05:16:34;;;;;;;6.03;3.90;;;17.10;77.60;;;;;;4971814;28;20041;-63
2021/08/11 05:18:59;;;;;;;6.70;4.07;;;17.10;77.80;;;;;;4975210;28;20042;-64
2021/08/11 05:21:25;;;;;;;4.38;3.90;;;17.00;78.00;;;;;;4973708;28;20030;-63
2021/08/11 05:23:51;;;;;;;5.13;3.95;;;17.00;78.30;;;;;;4971622;28;20033;-63
2021/08/11 05:26:17;;;;;;;5.80;3.55;;;17.00;78.60;;;;;;4981415;28;20038;-63
2021/08/11 05:28:43;;;;;;;7.60;4.68;;;16.90;78.70;;;;;;4978067;28;20054;-63
2021/08/11 05:31:09;;;;;;;8.10;3.85;;;17.00;79.30;;;;;;4979331;28;20026;-63
2021/08/11 05:33:34;;;;;;;5.18;4.13;;;17.00;79.40;;;;;;4974264;28;20045;-63
2021/08/11 05:36:00;;;;;;;9.07;4.05;;;17.10;79.60;;;;;;4973406;28;20031;-63
2021/08/11 05:38:27;;;;;;;9.30;4.28;;;17.00;79.80;;;;;;4975594;28;20117;-63
2021/08/11 05:40:53;;;;;;;4.70;4.07;;;17.10;80.00;;;;;;4972207;28;20441;-63
2021/08/11 05:43:19;;;;;;;7.45;4.13;;;17.10;80.00;;;;;;4958452;28;20047;-63
2021/08/11 05:45:45;;;;;;;7.20;4.13;;;17.20;80.20;;;;;;4946667;28;20027;-64
2021/08/11 05:48:10;;;;;;;6.68;4.00;;;17.20;80.30;;;;;;4950986;28;20074;-63
2021/08/11 05:50:37;;;;;;;6.05;4.95;;;17.30;80.40;;;;;;4962784;28;20676;-63
2021/08/11 05:53:03;;;;;;;5.30;4.20;;;17.40;80.60;;;;;;4973626;28;20133;-64
2021/08/11 05:55:29;;;;;;;5.05;4.30;;;17.40;80.40;;;;;;4951559;28;20035;-63
2021/08/11 05:57:54;;;;;;;6.97;4.35;;;17.50;80.30;;;;;;4954577;28;20027;-63
2021/08/11 06:00:20;;;;;;;7.13;4.95;;;17.60;80.30;;;;;;4952715;28;20030;-63
2021/08/11 06:02:46;;;;;;;6.88;4.28;;;17.70;80.30;;;;;;4949851;28;20529;-64
2021/08/11 06:05:12;;;;;;;6.80;4.55;;;17.70;80.20;;;;;;4958024;28;20026;-63
2021/08/11 06:07:41;;;;;;;5.03;4.30;;;17.90;80.30;;;;;;4954075;28;20053;-63
2021/08/11 06:10:08;;;;;;;6.35;4.18;;;17.90;80.50;;;;;;4967163;28;20043;-63
2021/08/11 06:12:34;;;;;;;5.47;3.92;;;18.00;80.40;;;;;;4964451;28;20050;-63
2021/08/11 06:14:59;;;;;;;7.53;4.45;;;18.10;80.10;;;;;;4951104;28;20058;-63
2021/08/11 06:17:25;;;;;;;6.30;4.55;;;18.10;80.00;;;;;;4954160;28;20593;-63
2021/08/11 06:19:51;;;;;;;7.43;5.15;;;18.20;79.80;;;;;;4969732;28;20039;-64
2021/08/11 06:22:17;;;;;;;5.88;4.82;;;18.30;79.80;;;;;;4971994;28;20034;-63
2021/08/11 06:24:43;;;;;;;5.47;4.55;;;18.40;80.00;;;;;;4950036;28;20057;-63
2021/08/11 06:27:08;;;;;;;5.07;4.57;;;18.40;79.80;;;;;;4968408;28;20043;-63
2021/08/11 06:29:34;;;;;;;5.05;4.55;;;18.50;79.80;;;;;;4965083;28;20478;-63
2021/08/11 06:32:02;;;;;;;7.18;4.25;;;18.60;79.90;;;;;;4969887;28;20050;-63
2021/08/11 06:34:28;;;;;;;8.60;4.50;;;18.70;79.80;;;;;;4966561;28;20071;-63
2021/08/11 06:36:53;;;;;;;4.90;4.40;;;18.80;79.60;;;;;;4975876;28;20043;-64
2021/08/11 06:39:20;;;;;;;5.15;4.40;;;18.90;79.40;;;;;;4954672;28;20378;-63
2021/08/11 06:41:46;;;;;;;5.32;4.35;;;18.90;79.40;;;;;;4956575;28;20043;-63
2021/08/11 06:44:11;;;;;;;7.55;4.28;;;19.00;79.10;;;;;;4970119;28;20306;-63
2021/08/11 06:46:37;;;;;;;6.18;4.45;;;19.10;79.10;;;;;;4953376;28;20125;-63
2021/08/11 06:49:03;;;;;;;6.07;4.55;;;19.20;79.40;;;;;;4974026;28;20043;-64
2021/08/11 06:51:28;;;;;;;5.07;4.45;;;19.20;79.20;;;;;;4980326;28;20034;-63
2021/08/11 06:53:54;;;;;;;4.45;4.07;;;19.30;79.20;;;;;;4966352;28;20050;-63
2021/08/11 06:56:20;;;;;;;7.18;4.25;;;19.40;79.10;;;;;;4968301;28;20074;-63
2021/08/11 06:58:45;;;;;;;5.40;4.13;;;19.50;78.80;;;;;;4967197;28;20058;-63
2021/08/11 07:01:11;;;;;;;5.55;4.60;;;19.60;78.50;;;;;;4959663;28;20100;-64
2021/08/11 07:03:37;;;;;;;4.55;4.10;;;19.70;78.40;;;;;;4961906;28;20134;-64
2021/08/11 07:06:02;;;;;;;4.95;4.20;;;19.70;78.00;;;;;;4970391;28;20049;-64
2021/08/11 07:08:28;;;;;;;6.22;4.60;;;19.80;77.90;;;;;;4975292;28;20047;-64
2021/08/11 07:10:54;;;;;;;8.73;4.57;;;19.90;77.90;;;;;;4975660;28;20050;-64
2021/08/11 07:13:20;;;;;;;6.95;4.43;;;20.00;77.80;;;;;;4996298;28;20046;-64
2021/08/11 07:15:46;;;;;;;7.03;4.22;;;20.00;77.50;;;;;;4979086;28;20573;-64
2021/08/11 07:18:16;;;;;;;4.68;4.18;;;20.10;77.30;;;;;;4983517;28;20038;-64
2021/08/11 07:20:42;;;;;;;4.93;4.05;;;20.20;77.20;;;;;;4984017;28;20509;-64
2021/08/11 07:23:07;;;;;;;4.35;3.80;;;20.30;77.10;;;;;;4971329;28;20504;-64
2021/08/11 07:25:33;;;;;;;4.60;3.90;;;20.40;77.20;;;;;;4972610;28;20026;-64
2021/08/11 07:27:59;;;;;;;5.32;3.97;;;20.50;77.00;;;;;;4981363;28;20518;-65
2021/08/11 07:30:25;;;;;;;4.55;3.83;;;20.60;76.60;;;;;;4981456;28;20117;-64
2021/08/11 07:32:50;;;;;;;5.80;3.95;;;20.70;76.60;;;;;;4981160;28;20030;-64
2021/08/11 07:35:16;;;;;;;5.05;3.55;;;20.80;76.30;;;;;;4980270;28;20043;-64
2021/08/11 07:37:46;;;;;;;5.40;3.55;;;20.80;76.10;;;;;;4997246;28;20030;-64
2021/08/11 07:40:13;;;;;;;4.95;3.58;;;21.00;76.10;;;;;;4980443;28;20121;-64
2021/08/11 07:42:40;;;;;;;3.65;2.95;;;21.10;75.70;;;;;;4989530;28;20058;-64
2021/08/11 07:45:06;;;;;;;6.05;3.60;;;21.20;75.30;;;;;;4980512;28;20031;-64
2021/08/11 07:47:32;;;;;;;5.25;3.60;;;21.30;75.00;;;;;;4979534;28;20046;-65
2021/08/11 07:49:57;;;;;;;4.55;3.22;;;21.40;74.80;;;;;;4977559;28;20129;-64
2021/08/11 07:52:23;;;;;;;3.92;3.08;;;21.50;74.70;;;;;;4996395;28;20047;-64
2021/08/11 07:54:49;;;;;;;5.18;2.97;;;21.60;75.10;;;;;;4982848;28;20636;-65
2021/08/11 07:57:14;;;;;;;5.97;3.10;;;21.70;74.20;;;;;;4982589;28;20056;-65
2021/08/11 07:59:40;;;;;;;3.15;2.95;;;21.80;73.80;;;;;;4980176;28;20062;-64
2021/08/11 08:02:11;;;;;;;3.25;2.80;;;21.90;73.70;;;;;;4998855;28;20035;-64
2021/08/11 08:04:37;;;;;;;6.03;2.95;;;22.10;73.00;;;;;;4980974;28;20043;-64
2021/08/11 08:07:03;;;;;;;4.63;2.70;;;22.20;72.20;;;;;;4982587;28;20509;-65
2021/08/11 08:09:28;;;;;;;3.17;2.40;;;22.30;71.70;;;;;;4995744;28;20039;-64
2021/08/11 08:11:54;;;;;;;3.45;2.38;;;22.40;71.40;;;;;;4976124;28;20499;-64
2021/08/11 08:14:20;;;;;;;4.78;2.40;;;22.50;71.00;;;;;;4975939;28;20034;-64
2021/08/11 08:16:45;;;;;;;2.45;2.25;;;22.60;70.60;;;;;;4980241;28;20120;-65
2021/08/11 08:19:11;;;;;;;3.30;2.58;;;22.70;70.10;;;;;;4994614;28;20104;-64
2021/08/11 08:21:37;;;;;;;3.83;3.00;;;22.90;69.80;;;;;;4981931;28;20039;-65
2021/08/11 08:24:03;;;;;;;4.25;3.05;;;22.90;69.10;;;;;;4976236;28;20509;-64
2021/08/11 08:26:29;;;;;;;4.53;2.80;;;23.10;68.70;;;;;;4982111;28;20043;-64
2021/08/11 08:28:54;;;;;;;11.13;2.80;;;23.20;67.80;;;;;;4980990;28;20034;-64
2021/08/11 08:31:20;;;;;;;6.45;2.80;;;23.30;67.60;;;;;;4991093;28;20026;-64
2021/08/11 08:33:45;;;;;;;3.42;3.08;;;23.40;67.30;;;;;;4982436;28;20023;-65
2021/08/11 08:36:11;;;;;;;2.63;2.42;;;23.40;66.70;;;;;;4999956;28;20053;-64
2021/08/11 08:38:37;;;;;;;3.67;2.78;;;23.60;66.70;;;;;;4993447;28;20067;-64
2021/08/11 08:41:03;;;;;;;4.40;2.83;;;23.70;66.50;;;;;;4983822;28;20038;-64
2021/08/11 08:43:29;;;;;;;5.95;3.15;;;23.70;66.10;;;;;;4984790;28;20490;-64
2021/08/11 08:45:54;;;;;;;3.78;2.65;;;23.80;65.50;;;;;;4997369;28;20070;-64
2021/08/11 08:48:20;;;;;;;3.33;2.75;;;23.90;64.70;;;;;;4977654;28;20038;-64
2021/08/11 08:50:50;;;;;;;5.30;3.35;;;24.00;64.80;;;;;;5000498;28;20045;-64
2021/08/11 08:53:23;;;;;;;4.22;2.70;;;24.10;64.40;;;;;;4998640;28;21516;-64
2021/08/11 08:55:53;;;;;;;3.95;3.05;;;24.20;63.60;;;;;;4993470;28;20042;-64
2021/08/11 08:58:19;;;;;;;4.28;2.80;;;24.20;63.40;;;;;;4975758;28;20041;-64
2021/08/11 09:00:46;;;;;;;3.30;3.00;;;24.30;63.30;;;;;;4991541;28;20089;-64
2021/08/11 09:03:12;;;;;;;3.55;2.88;;;24.40;63.30;;;;;;4995436;28;20026;-64
2021/08/11 09:05:38;;;;;;;3.53;3.22;;;24.50;63.60;;;;;;4999606;28;20113;-64
2021/08/11 09:08:07;;;;;;;4.22;3.10;;;24.60;63.30;;;;;;4985737;28;20423;-64
2021/08/11 09:10:35;;;;;;;5.18;3.10;;;24.70;63.10;;;;;;4979873;28;20031;-64
2021/08/11 09:13:08;;;;;;;4.13;2.90;;;24.70;63.10;;;;;;4976040;28;20038;-64
2021/08/11 09:15:43;;;;;;;3.28;2.97;;;24.80;62.70;;;;;;4992807;28;20030;-64
2021/08/11 09:18:19;;;;;;;3.10;2.85;;;24.90;62.20;;;;;;4997679;28;20469;-64
2021/08/11 09:20:47;;;;;;;6.53;3.10;;;25.00;62.00;;;;;;4975459;28;20475;-64
2021/08/11 09:23:15;;;;;;;3.35;2.92;;;25.00;62.20;;;;;;4983267;28;20116;-64
2021/08/11 09:26:01;;;;;;;3.08;2.78;;;25.10;61.70;;;;;;4997961;28;20043;-64
2021/08/11 09:28:29;;;;;;;5.45;2.85;;;25.30;59.90;;;;;;4978025;28;20046;-64
2021/08/11 09:30:54;;;;;;;3.08;2.80;;;25.30;60.50;;;;;;4983859;28;20053;-64
2021/08/11 09:33:24;;;;;;;3.33;2.85;;;25.40;59.70;;;;;;4979996;28;20030;-64
2021/08/11 09:35:51;;;;;;;4.75;2.80;;;25.40;59.70;;;;;;4994055;28;20026;-64
2021/08/11 09:38:16;;;;;;;4.97;2.83;;;25.50;59.90;;;;;;4999914;28;20027;-64
2021/08/11 09:40:43;;;;;;;4.18;2.78;;;25.60;60.20;;;;;;4984459;28;20410;-64
2021/08/11 09:43:17;;;;;;;4.60;2.97;;;25.70;59.40;;;;;;4994723;28;20026;-65
2021/08/11 09:45:46;;;;;;;5.35;2.92;;;25.80;58.80;;;;;;4974239;28;20180;-64
2021/08/11 09:48:13;;;;;;;3.50;2.95;;;25.80;58.70;;;;;;4981315;28;20046;-64
2021/08/11 09:50:46;;;;;;;3.47;2.88;;;25.90;59.40;;;;;;4980882;28;20073;-64
2021/08/11 09:53:13;;;;;;;4.97;3.10;;;26.00;58.50;;;;;;4996792;28;20618;-64
2021/08/11 09:56:04;;;;;;;4.22;3.13;;;26.10;58.20;;;;;;4975786;28;20478;-65
2021/08/11 09:58:40;;;;;;;3.65;2.67;;;26.20;56.50;;;;;;4993229;28;20035;-64
2021/08/11 10:01:16;;;;;;;3.65;2.60;;;26.30;57.70;;;;;;4977295;28;20089;-65
2021/08/11 10:04:02;;;;;;;2.97;2.67;;;26.30;58.00;;;;;;4998092;28;20042;-65
2021/08/11 10:06:39;;;;;;;5.00;2.70;;;26.40;57.00;;;;;;4995827;28;20039;-64
2021/08/11 10:09:17;;;;;;;3.28;2.80;;;26.50;57.50;;;;;;4988889;28;20045;-64
2021/08/11 10:11:47;;;;;;;2.63;2.40;;;26.60;56.40;;;;;;4995454;28;20537;-65
2021/08/11 10:14:14;;;;;;;3.05;2.40;;;26.60;56.50;;;;;;4993289;28;20039;-65
2021/08/11 10:16:41;;;;;;;2.83;2.55;;;26.70;56.90;;;;;;5003412;28;20047;-65
2021/08/11 10:19:08;;;;;;;2.78;2.53;;;26.70;56.80;;;;;;5004068;28;20035;-65
2021/08/11 10:21:54;;;;;;;3.42;2.78;;;26.80;56.70;;;;;;4989083;28;20030;-65
2021/08/11 10:24:20;;;;;;;3.03;2.58;;;26.80;55.60;;;;;;4980391;28;20030;-65
2021/08/11 10:26:48;;;;;;;3.58;2.97;;;26.90;55.40;;;;;;5004591;28;20386;-64
2021/08/11 10:29:16;;;;;;;2.90;2.60;;;26.90;55.00;;;;;;4987551;28;20401;-64
2021/08/11 10:31:42;;;;;;;2.42;2.22;;;26.90;55.30;;;;;;5003413;28;20093;-65
2021/08/11 10:34:11;;;;;;;3.85;2.65;;;27.00;55.70;;;;;;4999201;28;20038;-65
2021/08/11 10:36:40;;;;;;;3.75;2.70;;;27.00;54.80;;;;;;4987741;28;20046;-65
2021/08/11 10:39:05;;;;;;;2.80;2.60;;;27.10;55.10;;;;;;4979482;28;20115;-65
2021/08/11 10:41:33;;;;;;;2.70;2.42;;;27.10;54.50;;;;;;5000959;28;20046;-65
2021/08/11 10:44:01;;;;;;;3.40;2.83;;;27.10;54.60;;;;;;5001301;28;20497;-65
2021/08/11 10:46:40;;;;;;;2.95;2.70;;;27.20;54.20;;;;;;5001549;28;20034;-64
2021/08/11 10:49:07;;;;;;;4.50;2.90;;;27.20;53.20;;;;;;4978115;28;20449;-65
2021/08/11 10:51:42;;;;;;;2.85;2.53;;;27.30;53.30;;;;;;4970117;28;20039;-65
2021/08/11 10:54:08;;;;;;;;;;;27.30;53.80;;;;;;4993944;28;20054;-65
2021/08/11 10:56:55;;;;;;;3.83;2.67;;;27.40;54.20;;;;;;5001001;28;20385;-65
2021/08/11 10:59:24;;;;;;;4.03;3.05;;;27.50;52.60;;;;;;4986166;28;20046;-65
2021/08/11 11:01:53;;;;;;;4.97;3.50;;;27.50;52.50;;;;;;4978527;28;20117;-65
2021/08/11 11:04:39;;;;;;;4.15;3.42;;;27.50;52.50;;;;;;4986538;28;20031;-65
2021/08/11 11:07:14;;;;;;;3.80;3.50;;;27.50;51.00;;;;;;4999100;28;20174;-65
2021/08/11 11:09:47;;;;;;;3.63;3.25;;;27.40;51.40;;;;;;4998264;28;20498;-65
2021/08/11 11:12:16;;;;;;;4.13;3.58;;;27.40;51.20;;;;;;4989593;28;20038;-65
2021/08/11 11:14:57;;;;;;;4.72;3.83;;;27.40;51.50;;;;;;4993276;28;20402;-65
2021/08/11 11:17:28;;;;;;;3.45;3.15;;;27.40;52.10;;;;;;5003677;28;20410;-65
2021/08/11 11:20:03;;;;;;;3.70;3.40;;;27.50;52.50;;;;;;4984562;28;20410;-65
2021/08/11 11:22:37;;;;;;;3.88;3.17;;;27.50;52.80;;;;;;5001606;28;20469;-64
2021/08/11 11:25:04;;;;;;;3.35;3.05;;;27.60;52.00;;;;;;4983489;28;20125;-65
2021/08/11 11:27:42;;;;;;;3.42;3.13;;;27.60;52.70;;;;;;4983620;28;20042;-65
2021/08/11 11:30:10;;;;;;;6.20;3.53;;;27.70;52.40;;;;;;4996543;28;20035;-65
2021/08/11 11:32:37;;;;;;;3.83;3.42;;;27.70;52.80;;;;;;4997269;28;20069;-65
2021/08/11 11:35:22;;;;;;;4.32;3.92;;;27.70;52.80;;;;;;4989383;28;20042;-65
2021/08/11 11:38:06;;;;;;;3.78;3.45;;;27.70;51.40;;;;;;4985904;28;20046;-65
2021/08/11 11:40:32;;;;;;;5.33;3.87;;;27.80;51.20;;;;;;4996369;28;20042;-65
2021/08/11 11:43:31;;;;;;;4.95;3.53;;;27.80;51.00;;;;;;4979315;28;20046;-65
2021/08/11 11:45:59;;;;;;;3.60;3.30;;;27.80;50.60;;;;;;4980252;28;20034;-65
2021/08/11 11:48:25;;;;;;;3.47;3.17;;;27.80;51.30;;;;;;4970681;28;20096;-64
2021/08/11 11:50:59;;;;;;;4.53;3.90;;;27.80;52.10;;;;;;4976201;28;20054;-65
2021/08/11 11:53:37;;;;;;;4.63;4.22;;;27.70;50.60;;;;;;4999657;28;20081;-65
2021/08/11 11:56:29;;;;;;;4.65;4.00;;;27.80;49.90;;;;;;4978505;28;20379;-65
2021/08/11 11:58:55;;;;;;;4.80;3.92;;;27.80;50.30;;;;;;4982580;28;20035;-64
2021/08/11 12:01:21;;;;;;;5.75;4.07;;;27.90;50.80;;;;;;5002515;28;20036;-65
2021/08/11 12:03:51;;;;;;;4.40;3.72;;;27.90;50.70;;;;;;4987903;28;20506;-64
2021/08/11 12:06:35;;;;;;;4.15;3.80;;;28.00;50.70;;;;;;4996413;28;20041;-65
2021/08/11 12:09:01;;;;;;;4.10;3.70;;;28.00;50.20;;;;;;4964035;28;20049;-65
2021/08/11 12:11:30;;;;;;;3.50;3.20;;;28.00;50.60;;;;;;4979575;28;20490;-64
2021/08/11 12:13:55;;;;;;;4.18;3.78;;;28.00;49.90;;;;;;4969190;28;20073;-65
2021/08/11 12:16:22;;;;;;;4.32;3.90;;;28.10;49.20;;;;;;4967176;28;20027;-64
2021/08/11 12:18:50;;;;;;;4.00;3.70;;;28.10;49.10;;;;;;4981271;28;20833;-64
2021/08/11 12:21:20;;;;;;;4.47;3.97;;;28.20;47.70;;;;;;4972640;28;20106;-64
2021/08/11 12:23:46;;;;;;;5.13;3.85;;;28.20;48.10;;;;;;4967454;28;20241;-64
2021/08/11 12:26:16;;;;;;;5.55;3.75;;;28.20;48.30;;;;;;4965334;28;20122;-64
2021/08/11 12:28:47;;;;;;;5.38;3.80;;;28.20;48.80;;;;;;4978612;28;20046;-65
2021/08/11 12:31:16;;;;;;;5.30;3.50;;;28.30;48.50;;;;;;4965020;28;20034;-64
2021/08/11 12:33:45;;;;;;;5.22;4.00;;;28.30;48.50;;;;;;4962473;28;20501;-65
2021/08/11 12:36:23;;;;;;;4.28;3.88;;;28.30;48.50;;;;;;4971144;28;20046;-65
2021/08/11 12:39:12;;;;;;;3.60;3.30;;;28.30;48.40;;;;;;4965369;28;20181;-65
2021/08/11 12:41:40;;;;;;;4.53;4.13;;;28.40;47.90;;;;;;4966396;28;20050;-65
2021/08/11 12:44:22;;;;;;;4.35;3.95;;;28.40;48.40;;;;;;4976040;28;20093;-65
2021/08/11 12:46:54;;;;;;;5.82;3.75;;;28.40;48.50;;;;;;4982038;28;20102;-64
2021/08/11 12:49:25;;;;;;;5.50;3.58;;;28.40;49.20;;;;;;4965438;28;20045;-64
2021/08/11 12:52:18;;;;;;;3.67;3.40;;;28.50;49.30;;;;;;4971329;28;20874;-64
2021/08/11 12:54:53;;;;;;;5.63;3.88;;;28.60;48.50;;;;;;4964916;28;20040;-65